Time;durP1;ratioP1;P1;durP2;ratioP2;P2;SDS_P1;SDS_P2;PMS_P1;PMS_P2;Temp;Humidity;BMP_temperature;BMP_pressure;BME280_temperature;BME280_humidity;BME280_pressure;Samples;Min_cycle;Max_cycle;Signal;HPM_P1;HPM_P2
2021/12/08 00:04:02;;;;;;;68.80;26.90;;;;;;;1.22;66.81;98760.76;212572;1322;138689;-58
2021/12/08 00:09:19;;;;;;;72.20;28.80;;;;;;;1.15;66.76;98758.34;213279;1320;138218;-60
2021/12/08 00:14:22;;;;;;;78.00;29.90;;;;;;;1.07;66.85;98752.61;213423;1320;138244;-58
2021/12/08 00:19:27;;;;;;;81.20;29.50;;;;;;;1.01;66.93;98750.34;212846;1319;138497;-55
2021/12/08 00:24:30;;;;;;;77.60;30.30;;;;;;;0.99;67.05;98754.24;213404;1320;139561;-60
2021/12/08 00:29:33;;;;;;;86.80;31.40;;;;;;;0.95;66.92;98759.05;212579;1322;139542;-58
2021/12/08 00:34:38;;;;;;;76.40;27.90;;;;;;;1.00;67.26;98765.20;212273;1325;138847;-59
2021/12/08 00:39:41;;;;;;;78.70;29.60;;;;;;;1.08;67.19;98763.24;213265;1320;139008;-58
2021/12/08 00:44:44;;;;;;;80.10;30.80;;;;;;;1.08;67.09;98767.60;212883;1319;139558;-59
2021/12/08 00:49:47;;;;;;;78.30;29.40;;;;;;;1.10;67.28;98773.15;213569;1325;139807;-58
2021/12/08 00:54:50;;;;;;;70.40;28.30;;;;;;;1.07;67.20;98771.32;212936;1320;138775;-60
2021/12/08 00:59:54;;;;;;;77.60;30.40;;;;;;;1.02;67.09;98764.29;212409;1320;138263;-57
2021/12/08 01:05:01;;;;;;;73.50;28.20;;;;;;;1.01;67.24;98762.23;212552;1319;138514;-59
2021/12/08 01:10:09;;;;;;;67.80;26.70;;;;;;;1.02;67.20;98756.43;213246;1319;139619;-59
2021/12/08 01:15:32;;;;;;;64.20;25.50;;;;;;;0.95;67.06;98764.83;212714;1319;139142;-57
2021/12/08 01:20:36;;;;;;;66.10;26.40;;;;;;;0.90;67.08;98773.19;212736;1322;139002;-57
2021/12/08 01:25:42;;;;;;;57.20;24.00;;;;;;;0.87;67.01;98770.09;212985;1325;139349;-57
2021/12/08 01:30:46;;;;;;;59.90;23.20;;;;;;;0.85;67.17;98764.95;212900;1319;139470;-57
2021/12/08 01:35:49;;;;;;;59.20;23.50;;;;;;;0.80;67.05;98763.69;212996;1320;138184;-57
2021/12/08 01:40:53;;;;;;;58.60;23.20;;;;;;;0.80;67.19;98768.90;212958;1323;139993;-59
2021/12/08 01:46:02;;;;;;;55.70;24.30;;;;;;;0.84;67.12;98766.70;212998;1322;139741;-59
2021/12/08 01:51:14;;;;;;;51.70;22.20;;;;;;;0.88;67.13;98763.11;213182;1319;138850;-60
2021/12/08 01:56:20;;;;;;;50.60;22.70;;;;;;;0.86;67.05;98759.83;212401;1325;138423;-57
2021/12/08 02:01:26;;;;;;;47.00;21.20;;;;;;;0.84;66.92;98764.07;213338;1319;139124;-57
2021/12/08 02:06:32;;;;;;;57.30;24.00;;;;;;;0.85;67.03;98748.69;214149;1319;139441;-57
2021/12/08 02:11:36;;;;;;;;;;;;;;;0.89;67.11;98743.00;212617;1320;138356;-58
2021/12/08 02:16:40;;;;;;;55.20;23.20;;;;;;;0.88;66.91;98742.67;213042;1319;125320;-60
2021/12/08 02:21:44;;;;;;;52.20;21.70;;;;;;;0.86;66.94;98737.83;212684;1322;141147;-59
2021/12/08 02:26:50;;;;;;;58.90;25.40;;;;;;;0.76;66.77;98731.67;213233;1317;139508;-58
2021/12/08 02:52:46;;;;;;;54.00;22.90;;;;;;;0.45;67.14;98712.58;213156;1320;141047;-57
2021/12/08 02:57:49;;;;;;;55.90;23.50;;;;;;;0.54;67.34;98713.04;213082;1325;139462;-59
2021/12/08 03:02:55;;;;;;;57.50;24.50;;;;;;;0.62;67.21;98711.95;213181;1322;139456;-59
2021/12/08 03:07:59;;;;;;;;;;;;;;;0.66;67.25;98705.56;212637;1320;138253;-58
2021/12/08 03:13:02;;;;;;;56.00;22.80;;;;;;;0.64;67.19;98697.59;212970;1324;277935;-59
2021/12/08 03:18:06;;;;;;;51.50;21.50;;;;;;;0.62;67.22;98678.27;212953;1323;138240;-57
2021/12/08 03:23:19;;;;;;;47.20;18.80;;;;;;;0.59;67.17;98668.57;212729;1320;138672;-58
2021/12/08 03:28:27;;;;;;;42.90;19.60;;;;;;;0.54;66.86;98671.50;212177;1327;139091;-61
2021/12/08 03:33:30;;;;;;;47.30;18.80;;;;;;;0.50;67.14;98678.79;213194;1319;138852;-58
2021/12/08 03:38:35;;;;;;;45.70;20.10;;;;;;;0.46;66.90;98693.73;213643;1320;139283;-59
2021/12/08 03:43:38;;;;;;;45.80;18.50;;;;;;;0.37;66.83;98690.63;212760;1320;138536;-57
2021/12/08 03:48:48;;;;;;;46.30;19.40;;;;;;;0.30;66.98;98677.23;212981;1321;138840;-56
2021/12/08 03:53:59;;;;;;;45.50;19.80;;;;;;;0.25;67.07;98675.09;213503;1319;139229;-58
2021/12/08 03:59:04;;;;;;;40.90;18.30;;;;;;;0.22;67.16;98673.06;212855;1323;138571;-58
2021/12/08 04:04:09;;;;;;;45.30;18.70;;;;;;;0.22;67.01;98673.61;212763;1325;138676;-59
2021/12/08 04:09:18;;;;;;;;;;;;;;;0.21;67.21;98661.05;213440;1320;139568;-61
2021/12/08 04:14:24;;;;;;;48.70;20.70;;;;;;;0.20;67.19;98647.48;212743;1319;125882;-60
2021/12/08 04:19:28;;;;;;;47.10;20.50;;;;;;;0.24;67.26;98640.77;213191;1319;138457;-61
2021/12/08 04:24:31;;;;;;;49.60;21.10;;;;;;;0.22;67.35;98634.86;213061;1321;139703;-58
2021/12/08 04:29:39;;;;;;;43.10;19.50;;;;;;;0.22;67.22;98635.56;213419;1319;138240;-60
2021/12/08 04:34:48;;;;;;;39.00;17.60;;;;;;;0.13;67.00;98627.08;212649;1324;139853;-59
2021/12/08 04:40:18;;;;;;;37.30;17.40;;;;;;;0.05;66.95;98621.03;213633;1319;138857;-57
2021/12/08 04:45:35;;;;;;;41.00;17.10;;;;;;;-0.02;66.87;98627.83;212947;1319;138904;-57
2021/12/08 05:01:59;;;;;;;45.40;19.30;;;;;;;-0.13;67.06;98648.53;213487;1322;139682;-60
2021/12/08 05:07:14;;;;;;;42.20;18.50;;;;;;;-0.12;67.20;98662.79;212597;1319;140868;-57
2021/12/08 05:12:24;;;;;;;43.70;18.60;;;;;;;-0.10;66.94;98673.88;212879;1319;139245;-56
2021/12/08 05:17:41;;;;;;;45.20;19.20;;;;;;;-0.01;67.17;98672.27;213316;1326;139134;-59
2021/12/08 05:22:52;;;;;;;47.70;20.80;;;;;;;0.09;66.99;98669.40;212563;1326;138691;-59
2021/12/08 05:27:59;;;;;;;54.30;23.30;;;;;;;0.14;67.11;98673.27;212328;1329;139245;-59
2021/12/08 05:33:02;;;;;;;50.40;23.00;;;;;;;0.17;66.86;98671.81;213001;1319;138539;-61
2021/12/08 05:38:06;;;;;;;50.10;23.00;;;;;;;0.12;66.58;98674.58;212769;1319;138619;-61
2021/12/08 05:43:15;;;;;;;55.80;23.40;;;;;;;0.14;66.83;98668.05;212906;1319;138366;-58
2021/12/08 05:48:21;;;;;;;56.20;23.10;;;;;;;0.17;66.86;98666.20;212619;1324;139251;-58
2021/12/08 05:53:25;;;;;;;51.80;22.60;;;;;;;0.08;66.63;98663.65;213590;1321;138841;-56
2021/12/08 05:58:29;;;;;;;59.80;25.90;;;;;;;0.03;66.73;98654.20;213413;1323;138634;-54
2021/12/08 06:03:32;;;;;;;55.40;23.90;;;;;;;-0.01;66.66;98655.52;213586;1322;138763;-56
2021/12/08 06:08:37;;;;;;;52.90;23.60;;;;;;;-0.06;66.74;98652.51;213593;1320;139556;-56
2021/12/08 06:13:41;;;;;;;48.30;22.60;;;;;;;-0.06;66.93;98642.41;212737;1325;138463;-58
2021/12/08 06:18:45;;;;;;;50.60;21.10;;;;;;;-0.04;66.88;98650.19;212569;1327;139381;-56
2021/12/08 06:23:49;;;;;;;43.70;19.70;;;;;;;0.01;66.71;98655.30;212684;1327;139277;-57
2021/12/08 06:28:53;;;;;;;42.00;18.90;;;;;;;0.05;66.56;98652.94;212591;1319;138975;-57
2021/12/08 06:33:57;;;;;;;40.90;18.70;;;;;;;0.04;66.63;98643.72;213080;1320;139186;-58
2021/12/08 06:39:05;;;;;;;45.70;20.10;;;;;;;-0.01;66.51;98637.55;212243;1332;138941;-59
2021/12/08 06:44:16;;;;;;;42.70;19.50;;;;;;;-0.08;66.46;98624.48;213279;1319;138929;-62
2021/12/08 06:49:20;;;;;;;43.30;18.30;;;;;;;-0.10;66.53;98613.05;212877;1323;139044;-61
2021/12/08 06:54:31;;;;;;;37.70;15.90;;;;;;;-0.16;66.35;98610.59;212984;1325;138841;-59
2021/12/08 06:59:50;;;;;;;37.20;16.90;;;;;;;-0.25;66.20;98606.63;213181;1320;139112;-62
2021/12/08 07:05:12;;;;;;;40.20;18.00;;;;;;;-0.31;66.36;98605.90;212665;1322;138906;-59
2021/12/08 07:10:27;;;;;;;38.60;17.40;;;;;;;-0.30;66.46;98608.16;212371;1323;139088;-58
2021/12/08 07:15:40;;;;;;;40.20;18.20;;;;;;;-0.26;66.33;98613.61;212456;1323;138601;-60
2021/12/08 07:20:48;;;;;;;44.30;18.60;;;;;;;-0.26;66.15;98613.27;213329;1320;139764;-58
2021/12/08 07:25:55;;;;;;;45.00;18.60;;;;;;;-0.27;66.20;98608.76;212338;1322;138645;-59
2021/12/08 07:31:04;;;;;;;40.90;17.20;;;;;;;-0.20;66.09;98603.02;212177;1329;139734;-55
2021/12/08 07:36:10;;;;;;;47.20;20.60;;;;;;;-0.13;66.03;98606.33;213562;1320;139262;-60
2021/12/08 07:41:26;;;;;;;45.60;20.60;;;;;;;-0.06;66.13;98602.30;213050;1320;139839;-60
2021/12/08 07:46:33;;;;;;;;;;;;;;;-0.01;65.95;98600.42;213085;1320;140160;-61
2021/12/08 07:51:49;;;;;;;51.20;22.00;;;;;;;0.10;66.14;98603.98;212909;1326;124947;-61
2021/12/08 07:56:56;;;;;;;45.80;20.30;;;;;;;0.09;65.89;98606.95;212915;1326;138512;-62
2021/12/08 08:02:07;;;;;;;44.30;20.50;;;;;;;0.02;65.78;98616.73;213103;1323;138781;-64
2021/12/08 08:07:12;;;;;;;42.40;18.90;;;;;;;0.00;65.67;98625.52;213443;1319;139012;-59
2021/12/08 08:12:21;;;;;;;44.50;21.20;;;;;;;0.01;65.70;98613.27;213150;1321;138468;-60
2021/12/08 08:17:34;;;;;;;92.70;45.30;;;;;;;0.05;65.78;98611.96;213273;1326;139223;-60
2021/12/08 08:22:39;;;;;;;220.30;126.40;;;;;;;0.15;66.02;98617.96;212840;1324;139263;-60
2021/12/08 08:27:42;;;;;;;56.70;25.40;;;;;;;0.25;66.15;98618.89;213066;1326;138957;-60
2021/12/08 08:32:49;;;;;;;193.00;106.90;;;;;;;0.29;65.70;98623.16;212426;1325;138553;-58
2021/12/08 08:37:53;;;;;;;42.80;20.00;;;;;;;0.41;66.18;98627.73;212767;1325;138841;-59
2021/12/08 08:42:58;;;;;;;40.10;18.20;;;;;;;0.48;65.78;98629.79;212757;1325;140589;-59
2021/12/08 08:48:11;;;;;;;40.10;19.00;;;;;;;0.36;65.16;98618.25;213534;1319;140225;-61
2021/12/08 08:53:24;;;;;;;38.00;16.90;;;;;;;0.27;65.20;98612.58;212781;1325;139442;-60
2021/12/08 08:58:30;;;;;;;41.40;19.80;;;;;;;0.30;65.75;98617.23;212842;1319;138711;-57
2021/12/08 09:03:40;;;;;;;33.40;17.10;;;;;;;0.39;65.59;98626.55;213135;1320;140141;-62
2021/12/08 09:08:43;;;;;;;39.90;18.20;;;;;;;0.34;65.33;98614.32;213523;1324;138185;-59
2021/12/08 09:14:13;;;;;;;38.90;17.80;;;;;;;0.25;65.17;98614.02;212265;1323;139325;-59
2021/12/08 09:19:26;;;;;;;36.00;18.00;;;;;;;0.17;65.27;98623.48;212686;1325;139584;-58
2021/12/08 09:24:44;;;;;;;42.80;19.90;;;;;;;0.14;65.27;98621.48;213208;1323;139848;-57
2021/12/08 09:29:55;;;;;;;42.00;20.50;;;;;;;0.12;65.25;98616.47;212574;1326;139420;-62
2021/12/08 09:35:09;;;;;;;39.90;19.10;;;;;;;0.13;65.33;98605.30;212367;1325;138917;-60
2021/12/08 09:40:17;;;;;;;37.80;18.20;;;;;;;0.09;65.37;98593.70;213243;1321;138687;-60
2021/12/08 09:45:31;;;;;;;35.80;16.50;;;;;;;0.03;65.31;98591.25;212640;1325;138796;-63
2021/12/08 09:50:36;;;;;;;33.30;17.40;;;;;;;-0.04;65.30;98593.34;212690;1327;140152;-61
2021/12/08 09:55:40;;;;;;;41.30;18.90;;;;;;;-0.08;65.43;98589.62;213230;1323;138963;-59
2021/12/08 10:00:45;;;;;;;46.10;23.00;;;;;;;0.06;66.47;98582.61;212832;1325;140861;-62
2021/12/08 10:05:49;;;;;;;;;;;;;;;0.46;66.63;98583.08;212670;1328;139036;-62
2021/12/08 10:10:53;;;;;;;49.50;20.90;;;;;;;0.53;66.05;98573.10;212970;1323;124989;-60
2021/12/08 10:15:56;;;;;;;53.00;22.10;;;;;;;0.46;65.75;98567.19;212063;1332;139104;-58
2021/12/08 10:20:59;;;;;;;59.40;26.20;;;;;;;0.39;65.53;98565.83;213064;1326;138435;-61
2021/12/08 10:26:24;;;;;;;159.00;84.90;;;;;;;0.32;65.65;98565.67;212788;1326;138911;-62
2021/12/08 10:31:32;;;;;;;58.80;26.50;;;;;;;0.40;66.19;98565.27;212515;1322;139140;-60
2021/12/08 10:36:47;;;;;;;50.20;23.50;;;;;;;0.39;65.87;98558.51;212532;1326;139719;-61
2021/12/08 10:42:07;;;;;;;46.20;21.90;;;;;;;0.34;65.67;98555.00;212238;1331;138755;-59
2021/12/08 10:47:30;;;;;;;39.70;19.70;;;;;;;0.24;65.65;98548.46;212463;1325;138801;-60
2021/12/08 10:58:07;;;;;;;50.80;23.40;;;;;;;0.17;65.73;98533.32;213106;1322;138966;-60
2021/12/08 11:03:14;;;;;;;46.10;20.90;;;;;;;0.17;65.82;98526.86;213643;1326;138730;-61
2021/12/08 11:08:36;;;;;;;268.00;130.50;;;;;;;0.17;65.94;98517.80;213324;1323;138360;-60
2021/12/08 11:13:44;;;;;;;47.60;22.50;;;;;;;0.29;66.38;98519.19;212649;1322;277799;-61
2021/12/08 11:18:56;;;;;;;42.70;21.10;;;;;;;0.35;66.00;98513.61;213221;1326;139443;-59
2021/12/08 11:24:00;;;;;;;43.00;22.10;;;;;;;0.38;65.79;98505.34;213259;1325;139884;-60
2021/12/08 11:29:06;;;;;;;46.80;22.70;;;;;;;0.42;66.00;98503.81;212904;1324;139003;-59
2021/12/08 11:34:25;;;;;;;37.20;21.40;;;;;;;0.43;65.98;98503.95;212933;1322;139158;-59
2021/12/08 11:39:30;;;;;;;38.80;21.20;;;;;;;0.43;65.89;98481.95;212467;1321;139376;-59
2021/12/08 11:44:37;;;;;;;39.70;18.80;;;;;;;0.48;66.03;98478.31;212982;1320;141023;-60
2021/12/08 11:49:47;;;;;;;36.70;19.90;;;;;;;0.43;65.80;98484.75;212630;1325;138497;-61
2021/12/08 11:54:56;;;;;;;39.50;21.10;;;;;;;0.39;65.77;98489.06;212500;1326;139609;-59
2021/12/08 12:00:21;;;;;;;39.00;20.20;;;;;;;0.38;65.92;98476.51;212394;1335;138337;-62
2021/12/08 12:05:36;;;;;;;247.80;138.60;;;;;;;0.41;66.26;98473.81;212616;1325;138644;-59
2021/12/08 12:10:44;;;;;;;40.60;19.90;;;;;;;0.53;66.47;98476.43;212091;1331;139320;-60
2021/12/08 12:15:49;;;;;;;49.90;24.00;;;;;;;0.54;66.17;98468.17;212425;1328;139342;-60
2021/12/08 12:20:59;;;;;;;44.70;23.30;;;;;;;0.50;65.90;98462.92;212514;1328;139674;-59
2021/12/08 12:26:22;;;;;;;47.70;24.60;;;;;;;0.44;65.69;98459.77;212557;1327;141013;-60
2021/12/08 12:31:31;;;;;;;42.80;23.20;;;;;;;0.38;65.91;98466.05;213251;1322;138475;-59
2021/12/08 12:36:40;;;;;;;68.50;34.50;;;;;;;0.38;66.09;98462.05;212516;1326;138716;-61
2021/12/08 12:41:55;;;;;;;35.80;19.70;;;;;;;0.53;66.29;98458.63;212372;1326;139868;-61
2021/12/08 12:47:09;;;;;;;38.20;19.20;;;;;;;0.60;66.12;98453.70;213443;1320;139191;-62
2021/12/08 12:52:15;;;;;;;35.60;18.90;;;;;;;0.64;66.03;98455.13;213018;1322;138286;-58
2021/12/08 12:57:18;;;;;;;37.40;20.60;;;;;;;0.62;65.93;98451.20;212766;1323;138970;-60
2021/12/08 13:02:32;;;;;;;36.00;19.30;;;;;;;0.58;65.78;98450.27;213074;1319;139568;-59
2021/12/08 13:07:42;;;;;;;41.50;21.30;;;;;;;0.51;65.52;98444.02;212536;1324;138907;-59
2021/12/08 13:12:46;;;;;;;39.70;21.60;;;;;;;0.44;65.64;98441.63;212963;1319;138417;-58
2021/12/08 13:18:07;;;;;;;41.60;22.20;;;;;;;0.36;65.58;98436.45;212444;1322;138582;-58
2021/12/08 13:23:13;;;;;;;41.90;21.20;;;;;;;0.29;65.57;98437.38;212873;1320;138824;-62
2021/12/08 13:28:24;;;;;;;;;;;;;;;0.22;65.70;98438.10;212888;1321;139143;-63
2021/12/08 13:33:34;;;;;;;43.90;22.30;;;;;;;0.17;65.76;98442.45;213351;1319;124631;-60
2021/12/08 13:38:43;;;;;;;43.90;22.50;;;;;;;0.18;65.92;98447.12;212953;1323;143312;-63
2021/12/08 13:43:51;;;;;;;40.20;21.40;;;;;;;0.15;65.93;98446.86;212329;1326;138738;-61
2021/12/08 13:49:13;;;;;;;39.30;20.10;;;;;;;0.14;65.81;98447.92;212157;1329;139318;-61
2021/12/08 13:54:38;;;;;;;38.70;20.50;;;;;;;0.15;65.93;98449.13;213042;1319;138989;-59
2021/12/08 13:59:55;;;;;;;43.40;20.10;;;;;;;0.14;65.85;98455.24;212634;1325;138650;-59
2021/12/08 14:05:28;;;;;;;35.50;18.10;;;;;;;0.20;65.81;98454.03;212288;1329;139850;-60
2021/12/08 14:10:35;;;;;;;39.90;20.70;;;;;;;0.27;65.89;98458.00;213402;1321;139155;-58
2021/12/08 14:15:49;;;;;;;39.30;20.70;;;;;;;0.32;65.94;98468.52;212434;1319;138761;-58
2021/12/08 14:21:06;;;;;;;39.20;20.70;;;;;;;0.35;65.95;98466.48;213050;1321;138618;-60
2021/12/08 14:26:22;;;;;;;65.70;36.10;;;;;;;0.42;66.00;98461.58;212767;1318;140202;-57
2021/12/08 14:31:33;;;;;;;33.30;18.60;;;;;;;0.50;65.99;98455.95;213024;1323;139561;-59
2021/12/08 14:36:39;;;;;;;54.10;29.10;;;;;;;0.46;65.80;98457.78;213172;1323;138811;-59
2021/12/08 14:41:42;;;;;;;38.50;21.00;;;;;;;0.49;65.78;98464.48;212830;1320;139166;-59
2021/12/08 14:46:48;;;;;;;35.90;20.10;;;;;;;0.41;65.50;98466.68;212609;1326;139648;-58
2021/12/08 14:51:55;;;;;;;34.60;20.30;;;;;;;0.32;65.38;98454.02;212643;1322;139429;-59
2021/12/08 14:56:59;;;;;;;31.10;18.30;;;;;;;0.24;65.28;98449.56;213473;1319;138476;-59
2021/12/08 15:02:03;;;;;;;224.40;129.60;;;;;;;0.18;65.59;98446.23;214131;1319;139600;-61
2021/12/08 15:07:09;;;;;;;41.00;22.30;;;;;;;0.26;65.98;98447.05;212904;1319;139428;-63
2021/12/08 15:12:20;;;;;;;36.70;20.10;;;;;;;0.26;65.52;98445.48;212968;1326;139930;-62
2021/12/08 15:17:32;;;;;;;34.20;18.90;;;;;;;0.17;65.36;98448.71;213032;1319;139344;-61
2021/12/08 15:22:42;;;;;;;243.00;150.00;;;;;;;0.14;65.37;98441.33;212912;1326;140265;-59
2021/12/08 15:27:49;;;;;;;37.60;21.50;;;;;;;0.33;66.30;98431.48;212181;1323;139412;-63
2021/12/08 15:33:04;;;;;;;38.30;21.40;;;;;;;0.43;65.67;98437.98;212993;1320;138890;-59
2021/12/08 15:38:09;;;;;;;34.50;19.80;;;;;;;0.40;65.41;98437.38;212684;1320;138494;-60
2021/12/08 15:43:16;;;;;;;36.40;20.90;;;;;;;0.35;65.12;98445.58;213630;1319;139373;-61
2021/12/08 15:48:28;;;;;;;34.30;19.50;;;;;;;0.30;65.26;98440.14;212787;1319;140402;-60
2021/12/08 15:53:39;;;;;;;35.90;20.90;;;;;;;0.23;65.22;98440.19;212858;1319;140952;-66
2021/12/08 15:58:52;;;;;;;34.20;19.20;;;;;;;0.19;65.37;98435.56;212651;1319;139318;-60
2021/12/08 16:03:59;;;;;;;257.40;155.40;;;;;;;0.18;65.54;98431.58;212805;1320;138462;-59
2021/12/08 16:09:24;;;;;;;36.00;21.30;;;;;;;0.29;65.98;98437.54;212881;1326;140287;-60
2021/12/08 16:14:33;;;;;;;35.10;20.10;;;;;;;0.28;65.24;98444.57;213029;1319;139002;-56
2021/12/08 16:19:40;;;;;;;33.40;19.80;;;;;;;0.16;65.08;98444.40;212371;1327;139497;-58
2021/12/08 16:24:43;;;;;;;35.00;20.00;;;;;;;0.05;65.08;98444.73;212598;1323;139122;-58
2021/12/08 16:29:47;;;;;;;39.70;22.50;;;;;;;-0.01;65.22;98442.28;212570;1320;139386;-60
2021/12/08 16:34:55;;;;;;;37.40;20.90;;;;;;;0.02;65.29;98448.84;212592;1327;140167;-54
2021/12/08 16:40:21;;;;;;;35.70;19.70;;;;;;;-0.10;65.14;98450.20;212233;1331;139266;-57
2021/12/08 16:45:26;;;;;;;36.30;21.20;;;;;;;-0.14;65.34;98452.94;213278;1322;139087;-60
2021/12/08 16:50:30;;;;;;;36.70;20.50;;;;;;;-0.09;65.46;98448.95;213262;1324;140265;-56
2021/12/08 16:55:35;;;;;;;35.60;20.20;;;;;;;-0.11;65.30;98442.39;212356;1326;139439;-60
2021/12/08 17:00:47;;;;;;;30.70;18.60;;;;;;;-0.16;65.23;98442.19;212664;1322;138911;-59
2021/12/08 17:05:53;;;;;;;32.40;19.20;;;;;;;-0.23;65.38;98436.29;212785;1319;139022;-58
2021/12/08 17:10:58;;;;;;;281.40;163.20;;;;;;;-0.25;65.45;98437.39;212589;1326;139904;-60
2021/12/08 17:16:03;;;;;;;32.10;18.00;;;;;;;-0.08;66.05;98443.55;213123;1322;139883;-61
2021/12/08 17:21:07;;;;;;;29.50;17.40;;;;;;;-0.04;65.74;98441.13;212481;1328;140637;-62
2021/12/08 17:26:11;;;;;;;28.00;16.80;;;;;;;-0.08;65.49;98437.60;213009;1323;140137;-59
2021/12/08 17:31:15;;;;;;;28.50;16.70;;;;;;;-0.13;65.41;98434.27;213055;1319;138458;-60
2021/12/08 17:36:18;;;;;;;35.40;18.60;;;;;;;-0.15;65.37;98432.55;212918;1319;139397;-59
2021/12/08 17:41:22;;;;;;;37.30;19.50;;;;;;;-0.17;65.35;98433.33;212573;1323;139349;-64
2021/12/08 17:46:26;;;;;;;38.50;20.90;;;;;;;-0.23;65.40;98429.50;212952;1320;139601;-57
2021/12/08 17:51:30;;;;;;;36.40;20.70;;;;;;;-0.28;65.39;98432.24;212939;1323;140604;-57
2021/12/08 17:56:35;;;;;;;36.00;20.80;;;;;;;-0.31;65.53;98426.38;212642;1326;139241;-64
2021/12/08 18:01:40;;;;;;;38.90;22.30;;;;;;;-0.29;65.65;98411.36;212822;1326;139043;-59
2021/12/08 18:06:46;;;;;;;37.80;20.20;;;;;;;-0.30;65.45;98413.80;212859;1322;138600;-59
2021/12/08 18:11:50;;;;;;;32.60;17.40;;;;;;;-0.30;65.51;98428.98;212427;1322;140503;-59
2021/12/08 18:16:53;;;;;;;27.60;17.00;;;;;;;-0.16;66.13;98430.50;212272;1329;139383;-58
2021/12/08 18:21:59;;;;;;;31.50;17.60;;;;;;;-0.06;66.01;98435.26;212824;1322;139540;-61
2021/12/08 18:27:05;;;;;;;32.10;16.30;;;;;;;-0.10;65.51;98440.60;213065;1321;139336;-60
2021/12/08 18:32:08;;;;;;;33.10;20.40;;;;;;;-0.24;65.32;98426.90;212947;1322;139891;-60
2021/12/08 18:37:11;;;;;;;34.90;19.90;;;;;;;-0.32;65.36;98427.11;212838;1320;138721;-58
2021/12/08 18:42:15;;;;;;;31.60;17.90;;;;;;;-0.31;65.54;98413.67;212674;1325;139040;-59
2021/12/08 18:47:20;;;;;;;31.80;17.30;;;;;;;-0.36;65.99;98411.20;212520;1321;141705;-59
2021/12/08 18:52:23;;;;;;;31.70;18.90;;;;;;;-0.44;65.50;98409.86;212446;1322;139156;-59
2021/12/08 18:57:33;;;;;;;32.60;19.70;;;;;;;-0.52;65.67;98398.08;212183;1329;139733;-59
2021/12/08 19:02:36;;;;;;;33.10;19.20;;;;;;;-0.52;65.76;98393.54;212776;1319;139043;-58
2021/12/08 19:07:43;;;;;;;34.50;20.40;;;;;;;-0.46;65.89;98395.10;212741;1322;138930;-58
2021/12/08 19:12:48;;;;;;;30.50;19.10;;;;;;;-0.43;65.68;98394.33;212704;1325;140506;-59
2021/12/08 19:17:51;;;;;;;35.70;19.50;;;;;;;-0.39;65.68;98388.98;212378;1323;271419;-61
2021/12/08 19:22:55;;;;;;;29.10;17.70;;;;;;;-0.38;65.86;98389.28;212316;1326;139337;-59
2021/12/08 19:28:04;;;;;;;30.20;18.40;;;;;;;-0.41;65.53;98386.77;213085;1322;141641;-58
2021/12/08 19:33:16;;;;;;;34.30;21.00;;;;;;;-0.34;65.91;98382.39;213553;1323;139441;-63
2021/12/08 19:38:20;;;;;;;36.80;20.60;;;;;;;-0.30;65.87;98383.16;213337;1319;138872;-60
2021/12/08 19:43:24;;;;;;;40.20;21.00;;;;;;;-0.27;65.86;98387.75;212592;1324;139140;-59
2021/12/08 19:48:27;;;;;;;34.00;19.00;;;;;;;-0.27;65.67;98382.52;212469;1322;139147;-62
2021/12/08 19:53:34;;;;;;;32.40;19.80;;;;;;;-0.32;65.68;98372.56;213189;1324;139168;-59
2021/12/08 19:58:38;;;;;;;32.40;18.80;;;;;;;-0.36;65.66;98373.55;212515;1327;139285;-60
2021/12/08 20:03:43;;;;;;;32.40;19.40;;;;;;;-0.40;65.56;98370.35;213279;1320;139192;-61
2021/12/08 20:08:47;;;;;;;35.30;18.90;;;;;;;-0.50;65.42;98367.17;212680;1326;138941;-59
2021/12/08 20:13:50;;;;;;;33.40;18.70;;;;;;;-0.58;65.56;98366.17;212622;1324;140095;-62
2021/12/08 20:18:54;;;;;;;35.90;20.30;;;;;;;-0.58;65.61;98365.65;212396;1322;139530;-59
2021/12/08 20:23:57;;;;;;;31.30;19.20;;;;;;;-0.55;65.61;98366.42;212948;1319;139184;-58
2021/12/08 20:29:01;;;;;;;33.50;20.00;;;;;;;-0.54;65.65;98361.89;212018;1326;140039;-63
2021/12/08 20:34:04;;;;;;;35.40;20.70;;;;;;;-0.44;66.03;98361.41;213000;1323;139918;-57
2021/12/08 20:39:07;;;;;;;39.70;22.40;;;;;;;-0.28;66.17;98357.49;212818;1320;138914;-61
2021/12/08 20:44:12;;;;;;;33.10;20.70;;;;;;;-0.18;66.04;98348.98;213172;1323;139118;-56
2021/12/08 20:49:16;;;;;;;105.50;58.40;;;;;;;-0.13;66.34;98349.02;212877;1319;140674;-58
2021/12/08 20:54:19;;;;;;;37.50;21.60;;;;;;;0.17;67.10;98342.32;213109;1326;140471;-59
2021/12/08 20:59:27;;;;;;;38.10;22.40;;;;;;;0.07;65.69;98340.91;213172;1320;139070;-64
2021/12/08 21:04:34;;;;;;;42.60;22.10;;;;;;;-0.04;65.81;98336.70;212458;1319;139662;-65
2021/12/08 21:09:37;;;;;;;36.70;20.90;;;;;;;-0.10;65.65;98330.79;212665;1322;139252;-57
2021/12/08 21:14:40;;;;;;;35.80;19.80;;;;;;;-0.15;65.67;98333.56;212375;1325;139282;-53
2021/12/08 21:19:44;;;;;;;31.00;18.10;;;;;;;-0.18;65.68;98339.04;213469;1323;139494;-68
2021/12/08 21:24:47;;;;;;;36.60;20.40;;;;;;;-0.14;66.01;98338.76;212944;1323;138881;-67
2021/12/08 21:29:50;;;;;;;36.70;20.80;;;;;;;-0.16;65.82;98335.15;212523;1323;140110;-56
2021/12/08 21:34:59;;;;;;;42.90;23.30;;;;;;;-0.25;65.58;98337.17;212235;1322;140208;-56
2021/12/08 21:40:04;;;;;;;39.10;22.00;;;;;;;-0.25;65.88;98328.27;213029;1324;139830;-57
2021/12/08 21:45:11;;;;;;;39.10;21.80;;;;;;;-0.17;66.12;98325.95;212828;1325;140215;-64
2021/12/08 21:50:16;;;;;;;34.10;19.90;;;;;;;-0.10;66.02;98325.05;212643;1323;139308;-56
2021/12/08 21:55:20;;;;;;;36.20;19.80;;;;;;;-0.10;65.90;98321.05;212902;1320;139841;-65
2021/12/08 22:00:27;;;;;;;35.40;19.90;;;;;;;-0.10;65.86;98326.09;212913;1323;138831;-60
2021/12/08 22:05:32;;;;;;;35.60;20.70;;;;;;;-0.19;65.60;98323.55;213114;1317;140045;-55
2021/12/08 22:10:35;;;;;;;;;;;;;;;-0.27;65.61;98316.47;212459;1325;138943;-58
2021/12/08 22:15:44;;;;;;;34.30;18.40;;;;;;;-0.33;65.57;98312.66;212779;1327;125222;-61
2021/12/08 22:20:47;;;;;;;34.40;19.10;;;;;;;-0.37;65.67;98311.38;213176;1319;139497;-66
2021/12/08 22:25:51;;;;;;;31.10;18.80;;;;;;;-0.31;66.01;98313.98;212980;1320;139890;-64
2021/12/08 22:30:55;;;;;;;37.20;18.90;;;;;;;-0.26;65.89;98313.67;212088;1329;139604;-61
2021/12/08 22:36:17;;;;;;;34.30;19.50;;;;;;;-0.28;65.86;98316.52;212794;1323;140045;-65
2021/12/08 22:41:20;;;;;;;39.80;18.80;;;;;;;-0.29;65.84;98310.61;213273;1319;139163;-56
2021/12/08 22:46:23;;;;;;;32.20;18.30;;;;;;;-0.30;65.86;98310.27;213196;1323;139330;-60
2021/12/08 22:51:27;;;;;;;31.30;18.60;;;;;;;-0.23;65.97;98305.75;213261;1319;139450;-57
2021/12/08 22:56:31;;;;;;;36.90;19.90;;;;;;;-0.25;65.94;98300.38;212859;1320;139669;-61
2021/12/08 23:01:35;;;;;;;36.10;19.90;;;;;;;-0.22;65.89;98297.00;212465;1325;138747;-55
2021/12/08 23:06:38;;;;;;;35.80;20.40;;;;;;;-0.16;66.17;98303.42;212360;1327;139521;-62
2021/12/08 23:11:45;;;;;;;39.40;19.80;;;;;;;-0.15;66.00;98302.38;212686;1322;139153;-59
2021/12/08 23:16:49;;;;;;;36.70;20.50;;;;;;;-0.16;65.95;98307.61;212733;1320;138759;-66
2021/12/08 23:21:52;;;;;;;35.10;20.50;;;;;;;-0.14;65.93;98304.09;212738;1319;138522;-56
2021/12/08 23:26:55;;;;;;;37.20;21.30;;;;;;;-0.16;66.03;98307.61;213353;1319;139837;-59
2021/12/08 23:32:02;;;;;;;36.60;19.70;;;;;;;-0.13;66.10;98312.25;212698;1324;139047;-58
2021/12/08 23:37:05;;;;;;;38.00;21.50;;;;;;;-0.12;66.12;98312.54;213268;1326;140345;-59
2021/12/08 23:42:11;;;;;;;41.30;22.40;;;;;;;-0.08;66.19;98305.27;213365;1323;139595;-55
2021/12/08 23:47:14;;;;;;;39.70;22.40;;;;;;;-0.05;66.12;98305.52;212998;1320;139193;-61
2021/12/08 23:52:17;;;;;;;38.90;20.40;;;;;;;-0.03;66.03;98301.09;212704;1322;139133;-56